Time;durP1;ratioP1;P1;durP2;ratioP2;P2;SDS_P1;SDS_P2;PMS_P1;PMS_P2;Temp;Humidity;BMP_temperature;BMP_pressure;BME280_temperature;BME280_humidity;BME280_pressure;Samples;Min_cycle;Max_cycle;Signal;HPM_P1;HPM_P2
2023/07/24 00:00:40;;;;;;;0.77;0.68;;;;;;;;;;5068945;28;20021;-82
2023/07/24 00:03:06;;;;;;;0.80;0.80;;;;;;;;;;5068541;28;20036;-81
2023/07/24 00:05:32;;;;;;;0.70;0.70;;;;;;;;;;5068545;28;20479;-82
2023/07/24 00:07:58;;;;;;;1.00;0.70;;;;;;;;;;5073394;28;20157;-82
2023/07/24 00:10:24;;;;;;;0.80;0.80;;;;;;;;;;5069581;28;20685;-82
2023/07/24 00:12:50;;;;;;;0.73;0.60;;;;;;;;;;5068212;28;20047;-83
2023/07/24 00:15:16;;;;;;;0.60;0.60;;;;;;;;;;5068318;28;20633;-81
2023/07/24 00:17:42;;;;;;;1.27;0.82;;;;;;;;;;5071516;28;20020;-81
2023/07/24 00:20:08;;;;;;;1.38;1.10;;;;;;;;;;5076707;28;20375;-82
2023/07/24 00:22:34;;;;;;;0.70;0.70;;;;;;;;;;5074610;28;20029;-82
2023/07/24 00:25:00;;;;;;;0.90;0.73;;;;;;;;;;5067481;28;20104;-81
2023/07/24 00:27:26;;;;;;;1.83;0.77;;;;;;;;;;5067080;28;20490;-82
2023/07/24 00:29:52;;;;;;;1.00;0.70;;;;;;;;;;5079368;28;20119;-82
2023/07/24 00:32:18;;;;;;;1.38;1.10;;;;;;;;;;5068748;28;20598;-81
2023/07/24 00:34:44;;;;;;;0.68;0.60;;;;;;;;;;5068895;28;20489;-82
2023/07/24 00:37:10;;;;;;;0.93;0.52;;;;;;;;;;5069048;28;20025;-81
2023/07/24 00:39:36;;;;;;;0.77;0.57;;;;;;;;;;5068580;28;20046;-82
2023/07/24 00:42:02;;;;;;;0.85;0.80;;;;;;;;;;5076935;28;20029;-82
2023/07/24 00:44:28;;;;;;;0.82;0.77;;;;;;;;;;5067272;28;20387;-82
2023/07/24 00:46:54;;;;;;;1.25;0.90;;;;;;;;;;5068383;28;20028;-81
2023/07/24 00:49:21;;;;;;;0.40;0.40;;;;;;;;;;5068587;28;20028;-82
2023/07/24 00:51:47;;;;;;;0.60;0.60;;;;;;;;;;5066242;28;20105;-82
2023/07/24 00:54:14;;;;;;;0.98;0.73;;;;;;;;;;5072865;28;20036;-82
2023/07/24 00:56:40;;;;;;;0.77;0.68;;;;;;;;;;5067754;28;20025;-81
2023/07/24 00:59:06;;;;;;;1.00;0.70;;;;;;;;;;5068512;28;20037;-81
2023/07/24 01:01:32;;;;;;;0.50;0.50;;;;;;;;;;5075162;28;20020;-82
2023/07/24 01:03:58;;;;;;;0.82;0.77;;;;;;;;;;5068517;28;20016;-81
2023/07/24 01:06:24;;;;;;;1.30;0.80;;;;;;;;;;5069619;28;20028;-81
2023/07/24 01:08:50;;;;;;;1.67;1.10;;;;;;;;;;5068205;28;20024;-81
2023/07/24 01:11:19;;;;;;;0.60;0.60;;;;;;;;;;5066805;28;20036;-81
2023/07/24 01:13:57;;;;;;;0.73;0.63;;;;;;;;;;5067845;28;20024;-80
2023/07/24 01:16:23;;;;;;;1.35;0.70;;;;;;;;;;5066413;28;20028;-81
2023/07/24 01:18:50;;;;;;;1.23;0.70;;;;;;;;;;5074745;28;20035;-80
2023/07/24 01:21:18;;;;;;;0.88;0.60;;;;;;;;;;5067310;28;20040;-81
2023/07/24 01:23:43;;;;;;;1.30;0.90;;;;;;;;;;5070116;28;20549;-80
2023/07/24 01:26:10;;;;;;;0.85;0.77;;;;;;;;;;5066188;28;20029;-81
2023/07/24 01:28:36;;;;;;;1.08;0.80;;;;;;;;;;5064055;28;20041;-81
2023/07/24 01:31:02;;;;;;;2.25;1.00;;;;;;;;;;5050096;28;20475;-81
2023/07/24 01:33:28;;;;;;;1.48;0.80;;;;;;;;;;5067784;28;20024;-81
2023/07/24 01:35:55;;;;;;;1.30;0.80;;;;;;;;;;5067366;28;20031;-81
2023/07/24 01:38:21;;;;;;;1.05;0.77;;;;;;;;;;5068880;28;20025;-82
2023/07/24 01:40:48;;;;;;;0.70;0.70;;;;;;;;;;5078965;28;20409;-81
2023/07/24 01:43:14;;;;;;;1.58;0.50;;;;;;;;;;5083471;28;20032;-81
2023/07/24 01:45:40;;;;;;;0.93;0.63;;;;;;;;;;5069067;28;20089;-81
2023/07/24 01:48:06;;;;;;;1.02;0.68;;;;;;;;;;5084290;28;20413;-81
2023/07/24 01:50:32;;;;;;;0.60;0.60;;;;;;;;;;5068757;28;20467;-81
2023/07/24 01:52:58;;;;;;;0.65;0.65;;;;;;;;;;5071501;28;20044;-81
2023/07/24 01:55:24;;;;;;;0.73;0.60;;;;;;;;;;5068114;28;20036;-82
2023/07/24 01:57:50;;;;;;;0.75;0.68;;;;;;;;;;5069836;28;20587;-81
2023/07/24 02:00:16;;;;;;;1.08;0.95;;;;;;;;;;5066902;28;20077;-82
2023/07/24 02:02:42;;;;;;;0.68;0.68;;;;;;;;;;5077196;28;20024;-81
2023/07/24 02:05:09;;;;;;;1.33;0.68;;;;;;;;;;5068497;28;20031;-81
2023/07/24 02:07:35;;;;;;;1.17;0.85;;;;;;;;;;5069062;28;20029;-82
2023/07/24 02:10:01;;;;;;;0.60;0.60;;;;;;;;;;5050126;28;20142;-81
2023/07/24 02:12:27;;;;;;;0.63;0.63;;;;;;;;;;5067374;28;20651;-81
2023/07/24 02:14:54;;;;;;;0.95;0.77;;;;;;;;;;5067731;28;20554;-81
2023/07/24 02:17:20;;;;;;;0.93;0.73;;;;;;;;;;5068619;28;20039;-81
2023/07/24 02:19:46;;;;;;;1.35;0.98;;;;;;;;;;5051499;28;20361;-81
2023/07/24 02:22:12;;;;;;;1.98;0.90;;;;;;;;;;5067388;28;20033;-80
2023/07/24 02:24:38;;;;;;;0.45;0.45;;;;;;;;;;5067740;28;20032;-81
2023/07/24 02:27:05;;;;;;;2.03;0.73;;;;;;;;;;5070698;28;20032;-81
2023/07/24 02:29:31;;;;;;;1.48;1.02;;;;;;;;;;5071700;28;20055;-81
2023/07/24 02:31:58;;;;;;;1.60;0.70;;;;;;;;;;5071491;28;20029;-79
2023/07/24 02:34:26;;;;;;;0.88;0.65;;;;;;;;;;5071310;28;20036;-81
2023/07/24 02:36:53;;;;;;;0.55;0.50;;;;;;;;;;5072021;28;20112;-80
2023/07/24 02:39:19;;;;;;;1.17;0.80;;;;;;;;;;5072485;28;20525;-81
2023/07/24 02:41:45;;;;;;;0.75;0.73;;;;;;;;;;5072073;28;20028;-80
2023/07/24 02:44:11;;;;;;;0.60;0.60;;;;;;;;;;5070526;28;20024;-80
2023/07/24 02:46:37;;;;;;;0.77;0.50;;;;;;;;;;5071017;28;20024;-81
2023/07/24 02:49:03;;;;;;;0.47;0.47;;;;;;;;;;5076178;28;20028;-81
2023/07/24 02:51:29;;;;;;;1.05;0.73;;;;;;;;;;5071462;28;20498;-81
2023/07/24 02:53:55;;;;;;;0.80;0.80;;;;;;;;;;5072502;28;20085;-81
2023/07/24 02:56:21;;;;;;;0.80;0.60;;;;;;;;;;5071699;28;20029;-81
2023/07/24 02:58:47;;;;;;;1.20;0.90;;;;;;;;;;5086252;28;20506;-81
2023/07/24 03:01:14;;;;;;;0.95;0.55;;;;;;;;;;5070344;28;20032;-81
2023/07/24 03:03:40;;;;;;;0.70;0.52;;;;;;;;;;5070311;28;20158;-81
2023/07/24 03:06:09;;;;;;;0.52;0.40;;;;;;;;;;5070664;28;20036;-81
2023/07/24 03:08:35;;;;;;;0.73;0.65;;;;;;;;;;5071809;28;20025;-82
2023/07/24 03:11:04;;;;;;;1.08;0.70;;;;;;;;;;5073432;28;20497;-81
2023/07/24 03:13:31;;;;;;;1.33;0.90;;;;;;;;;;5070914;28;20487;-81
2023/07/24 03:15:58;;;;;;;0.77;0.77;;;;;;;;;;5070000;28;20036;-82
2023/07/24 03:18:24;;;;;;;0.65;0.57;;;;;;;;;;5070814;28;20024;-82
2023/07/24 03:20:49;;;;;;;1.02;0.50;;;;;;;;;;5074497;28;20146;-80
2023/07/24 03:23:16;;;;;;;0.45;0.45;;;;;;;;;;5069956;28;20486;-80
2023/07/24 03:25:42;;;;;;;0.93;0.70;;;;;;;;;;5072225;28;20079;-80
2023/07/24 03:28:08;;;;;;;0.60;0.60;;;;;;;;;;5069531;28;20062;-82
2023/07/24 03:30:33;;;;;;;0.40;0.40;;;;;;;;;;5072604;28;20860;-81
2023/07/24 03:33:00;;;;;;;0.90;0.80;;;;;;;;;;5070716;28;20074;-80
2023/07/24 03:35:27;;;;;;;1.33;0.77;;;;;;;;;;5080442;28;20019;-81
2023/07/24 03:37:53;;;;;;;1.17;0.55;;;;;;;;;;5069682;28;20382;-80
2023/07/24 03:40:19;;;;;;;0.50;0.50;;;;;;;;;;5069676;28;20012;-81
2023/07/24 03:42:45;;;;;;;0.57;0.57;;;;;;;;;;5069459;28;20583;-82
2023/07/24 03:45:11;;;;;;;0.93;0.80;;;;;;;;;;5067904;28;20036;-80
2023/07/24 03:47:36;;;;;;;1.02;0.75;;;;;;;;;;5067886;28;20020;-81
2023/07/24 03:50:02;;;;;;;0.70;0.60;;;;;;;;;;5071234;28;20027;-82
2023/07/24 03:52:28;;;;;;;0.98;0.65;;;;;;;;;;5071579;28;20395;-80
2023/07/24 03:54:54;;;;;;;0.90;0.70;;;;;;;;;;5070262;28;20059;-82
2023/07/24 03:57:20;;;;;;;0.82;0.50;;;;;;;;;;5068615;28;20025;-79
2023/07/24 03:59:46;;;;;;;0.93;0.60;;;;;;;;;;5051929;28;20024;-80
2023/07/24 04:02:15;;;;;;;0.90;0.80;;;;;;;;;;5051260;28;20032;-80
2023/07/24 04:04:41;;;;;;;0.60;0.57;;;;;;;;;;5068909;28;20042;-80
2023/07/24 04:07:07;;;;;;;0.73;0.60;;;;;;;;;;5067158;28;20017;-81
2023/07/24 04:09:33;;;;;;;0.60;0.60;;;;;;;;;;5068558;28;20031;-81
2023/07/24 04:11:59;;;;;;;0.60;0.60;;;;;;;;;;5068447;28;20016;-79
2023/07/24 04:14:25;;;;;;;0.88;0.50;;;;;;;;;;5069089;28;20047;-81
2023/07/24 04:16:51;;;;;;;0.68;0.68;;;;;;;;;;5070198;28;20036;-79
2023/07/24 04:19:17;;;;;;;0.80;0.47;;;;;;;;;;5076528;28;20042;-81
2023/07/24 04:21:43;;;;;;;0.60;0.60;;;;;;;;;;5070432;28;20702;-80
2023/07/24 04:24:09;;;;;;;1.50;0.70;;;;;;;;;;5069770;28;20027;-81
2023/07/24 04:26:35;;;;;;;0.63;0.60;;;;;;;;;;5068688;28;20446;-81
2023/07/24 04:29:01;;;;;;;0.60;0.60;;;;;;;;;;5071701;28;20056;-82
2023/07/24 04:31:27;;;;;;;0.68;0.63;;;;;;;;;;5076289;28;20028;-81
2023/07/24 04:33:53;;;;;;;0.60;0.60;;;;;;;;;;5073839;28;20031;-81
2023/07/24 04:36:19;;;;;;;0.80;0.68;;;;;;;;;;5065721;28;20024;-81
2023/07/24 04:38:47;;;;;;;0.52;0.47;;;;;;;;;;5069639;28;20562;-81
2023/07/24 04:41:12;;;;;;;0.70;0.52;;;;;;;;;;5067254;28;20035;-82
2023/07/24 04:43:38;;;;;;;2.15;0.70;;;;;;;;;;5072290;28;20024;-82
2023/07/24 04:46:05;;;;;;;1.48;0.57;;;;;;;;;;5068231;28;20036;-82
2023/07/24 04:48:31;;;;;;;0.57;0.47;;;;;;;;;;5069534;28;20024;-82
2023/07/24 04:50:57;;;;;;;0.75;0.75;;;;;;;;;;5051600;28;20046;-82
2023/07/24 04:53:23;;;;;;;1.23;0.80;;;;;;;;;;5070661;28;20031;-77
2023/07/24 04:55:49;;;;;;;0.60;0.60;;;;;;;;;;5069303;28;20106;-75
2023/07/24 04:58:15;;;;;;;0.82;0.60;;;;;;;;;;5071802;28;20111;-74
2023/07/24 05:00:41;;;;;;;1.05;0.85;;;;;;;;;;5065874;28;20028;-74
2023/07/24 05:03:10;;;;;;;0.88;0.73;;;;;;;;;;5067640;28;20043;-74
2023/07/24 05:05:37;;;;;;;1.50;0.85;;;;;;;;;;5069867;28;20024;-75
2023/07/24 05:08:06;;;;;;;0.88;0.68;;;;;;;;;;5068612;28;20032;-74
2023/07/24 05:10:35;;;;;;;0.52;0.50;;;;;;;;;;5068135;28;20021;-75
2023/07/24 05:13:01;;;;;;;1.50;0.55;;;;;;;;;;5074163;28;20483;-73
2023/07/24 05:15:29;;;;;;;1.33;0.43;;;;;;;;;;5066931;28;20020;-75
2023/07/24 05:17:55;;;;;;;0.65;0.45;;;;;;;;;;5072403;28;20032;-75
2023/07/24 05:20:21;;;;;;;2.67;0.52;;;;;;;;;;5068945;28;20028;-75
2023/07/24 05:22:47;;;;;;;1.05;0.70;;;;;;;;;;5068635;28;20040;-78
2023/07/24 05:25:13;;;;;;;0.43;0.43;;;;;;;;;;5068274;28;20475;-82
2023/07/24 05:27:39;;;;;;;0.70;0.50;;;;;;;;;;5072487;28;20527;-82
2023/07/24 05:30:06;;;;;;;0.80;0.68;;;;;;;;;;5057093;28;20043;-82
2023/07/24 05:32:32;;;;;;;0.73;0.55;;;;;;;;;;5067071;28;20024;-82
2023/07/24 05:34:58;;;;;;;2.15;0.80;;;;;;;;;;5065545;28;20062;-78
2023/07/24 05:37:23;;;;;;;1.35;0.80;;;;;;;;;;5069082;28;20968;-77
2023/07/24 05:39:51;;;;;;;0.73;0.60;;;;;;;;;;5068655;28;20035;-86
2023/07/24 05:42:16;;;;;;;0.73;0.73;;;;;;;;;;5085160;28;20028;-76
2023/07/24 05:44:42;;;;;;;0.60;0.60;;;;;;;;;;5070295;28;20039;-76
2023/07/24 05:47:08;;;;;;;2.95;0.80;;;;;;;;;;5069460;28;20042;-76
2023/07/24 05:49:34;;;;;;;0.40;0.40;;;;;;;;;;5067646;28;20464;-76
2023/07/24 05:52:00;;;;;;;0.75;0.65;;;;;;;;;;5075362;28;20033;-76
2023/07/24 05:54:26;;;;;;;0.65;0.57;;;;;;;;;;5068670;28;20031;-76
2023/07/24 05:56:53;;;;;;;0.55;0.55;;;;;;;;;;5067659;28;20073;-80
2023/07/24 05:59:18;;;;;;;0.70;0.70;;;;;;;;;;5067537;28;20036;-81
2023/07/24 06:01:44;;;;;;;3.08;0.75;;;;;;;;;;5076891;28;20546;-85
2023/07/24 06:04:10;;;;;;;0.50;0.50;;;;;;;;;;5072472;28;20512;-80
2023/07/24 06:06:36;;;;;;;1.25;0.63;;;;;;;;;;5069774;28;20035;-80
2023/07/24 06:09:03;;;;;;;0.75;0.75;;;;;;;;;;5072947;28;20027;-76
2023/07/24 06:11:29;;;;;;;0.35;0.35;;;;;;;;;;5071035;28;20320;-76
2023/07/24 06:13:54;;;;;;;2.88;0.60;;;;;;;;;;5053336;28;20238;-76
2023/07/24 06:16:20;;;;;;;0.45;0.45;;;;;;;;;;5070119;28;20028;-74
2023/07/24 06:18:46;;;;;;;0.85;0.60;;;;;;;;;;5066628;28;20028;-76
2023/07/24 06:21:12;;;;;;;1.35;0.60;;;;;;;;;;5065793;28;20501;-76
2023/07/24 06:23:38;;;;;;;1.95;1.10;;;;;;;;;;5056063;28;20025;-77
2023/07/24 06:26:04;;;;;;;1.05;0.75;;;;;;;;;;5070077;28;20040;-76
2023/07/24 06:28:31;;;;;;;2.38;0.85;;;;;;;;;;5067204;28;20052;-78
2023/07/24 06:30:57;;;;;;;3.17;0.60;;;;;;;;;;5070596;28;20057;-76
2023/07/24 06:33:23;;;;;;;0.70;0.47;;;;;;;;;;5064582;28;20033;-77
2023/07/24 06:35:50;;;;;;;0.55;0.55;;;;;;;;;;5065500;28;21007;-77
2023/07/24 06:38:16;;;;;;;0.70;0.60;;;;;;;;;;5071405;28;20029;-77
2023/07/24 06:40:42;;;;;;;0.93;0.60;;;;;;;;;;5069008;28;20025;-77
2023/07/24 06:43:08;;;;;;;3.17;1.10;;;;;;;;;;5068339;28;20510;-76
2023/07/24 06:45:34;;;;;;;1.23;0.65;;;;;;;;;;5066640;28;20150;-76
2023/07/24 06:48:00;;;;;;;0.50;0.50;;;;;;;;;;5073093;28;20406;-73
2023/07/24 06:50:26;;;;;;;0.52;0.50;;;;;;;;;;5069062;28;20028;-74
2023/07/24 06:52:53;;;;;;;1.40;0.80;;;;;;;;;;5069568;28;20048;-76
2023/07/24 06:55:19;;;;;;;1.00;0.60;;;;;;;;;;5064547;28;20031;-78
2023/07/24 06:57:45;;;;;;;1.42;0.68;;;;;;;;;;5066324;28;20111;-74
2023/07/24 07:00:12;;;;;;;1.17;0.80;;;;;;;;;;5057132;28;20031;-73
2023/07/24 07:02:38;;;;;;;0.50;0.50;;;;;;;;;;5062089;28;20081;-74
2023/07/24 07:05:04;;;;;;;1.48;0.70;;;;;;;;;;5068367;28;20031;-74
2023/07/24 07:07:31;;;;;;;1.17;0.70;;;;;;;;;;5070375;28;20036;-76
2023/07/24 07:09:57;;;;;;;0.70;0.70;;;;;;;;;;5068509;28;20422;-76
2023/07/24 07:12:23;;;;;;;2.08;1.23;;;;;;;;;;5070877;28;20031;-75
2023/07/24 07:14:48;;;;;;;1.00;0.57;;;;;;;;;;5075080;28;20401;-77
2023/07/24 07:17:14;;;;;;;1.85;0.75;;;;;;;;;;5070844;28;20037;-74
2023/07/24 07:19:40;;;;;;;0.70;0.70;;;;;;;;;;5060935;28;20036;-75
2023/07/24 07:22:06;;;;;;;0.75;0.70;;;;;;;;;;5067285;28;20024;-76
2023/07/24 07:24:32;;;;;;;2.05;0.70;;;;;;;;;;5060259;28;20074;-75
2023/07/24 07:26:59;;;;;;;0.50;0.50;;;;;;;;;;5067163;28;20021;-75
2023/07/24 07:29:25;;;;;;;2.78;1.30;;;;;;;;;;5068135;28;20194;-76
2023/07/24 07:31:50;;;;;;;0.80;0.80;;;;;;;;;;5062596;28;20474;-76
2023/07/24 07:34:16;;;;;;;0.82;0.70;;;;;;;;;;5064446;28;20032;-73
2023/07/24 07:36:42;;;;;;;1.48;0.73;;;;;;;;;;5066455;28;20656;-74
2023/07/24 07:39:09;;;;;;;1.38;0.77;;;;;;;;;;5069574;28;20060;-74
2023/07/24 07:41:35;;;;;;;1.63;0.93;;;;;;;;;;5063056;28;20055;-78
2023/07/24 07:44:01;;;;;;;1.20;0.80;;;;;;;;;;5060724;28;20017;-75
2023/07/24 07:46:27;;;;;;;1.00;0.70;;;;;;;;;;5065745;28;20554;-75
2023/07/24 07:48:53;;;;;;;0.73;0.73;;;;;;;;;;5073866;28;20016;-75
2023/07/24 07:51:19;;;;;;;0.63;0.60;;;;;;;;;;5069471;28;20033;-76
2023/07/24 07:53:45;;;;;;;0.82;0.57;;;;;;;;;;5066892;28;20020;-74
2023/07/24 07:56:11;;;;;;;0.45;0.45;;;;;;;;;;5062863;28;20558;-74
2023/07/24 07:58:37;;;;;;;0.80;0.70;;;;;;;;;;5048729;28;20019;-74
2023/07/24 08:01:06;;;;;;;0.80;0.80;;;;;;;;;;5069005;28;20025;-73
2023/07/24 08:03:33;;;;;;;0.75;0.75;;;;;;;;;;5068308;28;20056;-74
2023/07/24 08:05:59;;;;;;;0.77;0.77;;;;;;;;;;5066038;28;20329;-75
2023/07/24 08:08:25;;;;;;;1.23;0.93;;;;;;;;;;5072859;28;20036;-74
2023/07/24 08:10:51;;;;;;;1.88;0.93;;;;;;;;;;5079573;28;20025;-74
2023/07/24 08:13:17;;;;;;;1.05;0.95;;;;;;;;;;5068684;28;20102;-73
2023/07/24 08:15:42;;;;;;;0.98;0.70;;;;;;;;;;5066282;28;20021;-75
2023/07/24 08:18:08;;;;;;;1.30;0.98;;;;;;;;;;5076515;28;20078;-75
2023/07/24 08:20:38;;;;;;;1.95;1.00;;;;;;;;;;5071339;28;20043;-74
2023/07/24 08:23:04;;;;;;;0.90;0.70;;;;;;;;;;5066140;28;20028;-74
2023/07/24 08:25:30;;;;;;;0.88;0.70;;;;;;;;;;5069037;28;20110;-74
2023/07/24 08:27:56;;;;;;;1.15;0.70;;;;;;;;;;5072499;28;20553;-75
2023/07/24 08:30:22;;;;;;;1.42;0.63;;;;;;;;;;5065840;28;20047;-76
2023/07/24 08:32:50;;;;;;;1.65;1.10;;;;;;;;;;5067553;28;20044;-76
2023/07/24 08:35:16;;;;;;;0.68;0.60;;;;;;;;;;5069572;28;20319;-78
2023/07/24 08:37:45;;;;;;;1.00;0.80;;;;;;;;;;5070975;28;20032;-74
2023/07/24 08:40:11;;;;;;;1.13;0.77;;;;;;;;;;5063610;28;20542;-73
2023/07/24 08:42:40;;;;;;;2.65;0.80;;;;;;;;;;5070905;28;20483;-75
2023/07/24 08:45:10;;;;;;;7.40;0.73;;;;;;;;;;5068689;28;20353;-75
2023/07/24 08:47:36;;;;;;;0.55;0.55;;;;;;;;;;5066070;28;20025;-77
2023/07/24 08:50:13;;;;;;;1.13;0.90;;;;;;;;;;5065407;28;20047;-78
2023/07/24 08:52:39;;;;;;;1.08;0.80;;;;;;;;;;5063336;28;20123;-76
2023/07/24 08:55:06;;;;;;;0.70;0.70;;;;;;;;;;5065065;28;20433;-81
2023/07/24 08:57:32;;;;;;;1.55;1.00;;;;;;;;;;5065174;28;20490;-80
2023/07/24 08:59:58;;;;;;;1.15;0.82;;;;;;;;;;5066224;28;20041;-78
2023/07/24 09:02:24;;;;;;;1.50;1.10;;;;;;;;;;5077433;28;20033;-77
2023/07/24 09:04:50;;;;;;;1.65;1.05;;;;;;;;;;5077507;28;20024;-77
2023/07/24 09:07:16;;;;;;;0.98;0.75;;;;;;;;;;5069553;28;20020;-78
2023/07/24 09:09:42;;;;;;;1.25;1.15;;;;;;;;;;5068415;28;20016;-78
2023/07/24 09:12:08;;;;;;;3.10;1.05;;;;;;;;;;5074965;28;20024;-78
2023/07/24 09:14:34;;;;;;;0.60;0.60;;;;;;;;;;5068313;28;20032;-78
2023/07/24 09:17:03;;;;;;;0.98;0.75;;;;;;;;;;5068614;28;20039;-78
2023/07/24 09:19:29;;;;;;;1.67;0.80;;;;;;;;;;5069741;28;21449;-79
2023/07/24 09:22:16;;;;;;;1.10;1.00;;;;;;;;;;5080457;28;20039;-79
2023/07/24 09:24:51;;;;;;;2.45;1.10;;;;;;;;;;5071411;28;20073;-80
2023/07/24 09:27:18;;;;;;;1.65;1.05;;;;;;;;;;5070005;28;20031;-84
2023/07/24 09:29:44;;;;;;;1.90;0.73;;;;;;;;;;5069662;28;20052;-80
2023/07/24 09:32:31;;;;;;;1.52;1.02;;;;;;;;;;5067170;28;20067;-80
2023/07/24 09:34:57;;;;;;;0.93;0.77;;;;;;;;;;5066743;28;20399;-81
2023/07/24 09:37:25;;;;;;;3.60;1.73;;;;;;;;;;5065473;28;20042;-80
2023/07/24 09:39:50;;;;;;;3.75;1.33;;;;;;;;;;5066830;28;20036;-84
2023/07/24 09:42:16;;;;;;;0.88;0.77;;;;;;;;;;5064971;28;20430;-81
2023/07/24 09:44:42;;;;;;;0.60;0.60;;;;;;;;;;5068384;28;20021;-80
2023/07/24 09:47:08;;;;;;;6.13;0.90;;;;;;;;;;5067747;28;20009;-78
2023/07/24 09:49:34;;;;;;;3.20;1.08;;;;;;;;;;5065422;28;20025;-79
2023/07/24 09:52:04;;;;;;;2.85;1.08;;;;;;;;;;5065896;28;20032;-80
2023/07/24 09:54:33;;;;;;;0.80;0.80;;;;;;;;;;5054455;28;20013;-79
2023/07/24 09:56:59;;;;;;;1.10;0.93;;;;;;;;;;5060474;28;20093;-79
2023/07/24 09:59:27;;;;;;;0.70;0.55;;;;;;;;;;5061144;28;20056;-80
2023/07/24 10:01:53;;;;;;;3.42;0.63;;;;;;;;;;5047511;28;20078;-80
2023/07/24 10:04:20;;;;;;;0.75;0.60;;;;;;;;;;5064247;28;20035;-79
2023/07/24 10:06:46;;;;;;;1.80;0.85;;;;;;;;;;5063095;28;20647;-79
2023/07/24 10:09:13;;;;;;;1.98;0.95;;;;;;;;;;5063379;28;20029;-79
2023/07/24 10:11:39;;;;;;;1.13;0.98;;;;;;;;;;5072484;28;20039;-80
2023/07/24 10:14:05;;;;;;;1.38;1.02;;;;;;;;;;5066291;28;20040;-79
2023/07/24 10:16:33;;;;;;;1.77;1.00;;;;;;;;;;5069684;28;20651;-78
2023/07/24 10:18:59;;;;;;;1.50;0.88;;;;;;;;;;5067346;28;20035;-79
2023/07/24 10:21:28;;;;;;;2.00;1.38;;;;;;;;;;5072441;28;20024;-79
2023/07/24 10:23:54;;;;;;;1.45;0.77;;;;;;;;;;5067844;28;20078;-80
2023/07/24 10:26:26;;;;;;;1.65;0.90;;;;;;;;;;5067348;28;20441;-79
2023/07/24 10:28:52;;;;;;;1.55;1.02;;;;;;;;;;5066019;28;20098;-79
2023/07/24 10:31:23;;;;;;;2.40;1.20;;;;;;;;;;5061727;28;20028;-80
2023/07/24 10:33:50;;;;;;;5.38;1.73;;;;;;;;;;5072381;28;20127;-76
2023/07/24 10:36:20;;;;;;;1.42;1.08;;;;;;;;;;5051487;28;20090;-81
2023/07/24 10:38:47;;;;;;;1.17;0.80;;;;;;;;;;5060627;28;20040;-79
2023/07/24 10:41:13;;;;;;;2.40;1.05;;;;;;;;;;5063874;28;20152;-80
2023/07/24 10:43:46;;;;;;;1.48;1.05;;;;;;;;;;5072159;28;20107;-79
2023/07/24 10:46:14;;;;;;;1.73;1.20;;;;;;;;;;5069662;28;20020;-80
2023/07/24 10:48:44;;;;;;;2.33;1.10;;;;;;;;;;5070712;28;20389;-80
2023/07/24 10:51:10;;;;;;;1.75;1.23;;;;;;;;;;5071436;28;20047;-80
2023/07/24 10:53:37;;;;;;;1.98;1.38;;;;;;;;;;5069697;28;20032;-79
2023/07/24 10:56:04;;;;;;;2.13;1.48;;;;;;;;;;5074636;28;20103;-80
2023/07/24 10:58:31;;;;;;;3.70;1.08;;;;;;;;;;5061866;28;20036;-76
2023/07/24 11:00:58;;;;;;;2.00;0.95;;;;;;;;;;5072532;28;20583;-79
2023/07/24 11:03:25;;;;;;;1.65;1.17;;;;;;;;;;5073806;28;20031;-80
2023/07/24 11:05:51;;;;;;;1.67;1.08;;;;;;;;;;5074130;28;20119;-80
2023/07/24 11:08:18;;;;;;;2.60;1.10;;;;;;;;;;5070553;28;20537;-80
2023/07/24 11:10:48;;;;;;;1.65;1.17;;;;;;;;;;5085570;28;20099;-80
2023/07/24 11:13:18;;;;;;;2.30;1.25;;;;;;;;;;5071197;28;20021;-78
2023/07/24 11:15:44;;;;;;;2.83;1.08;;;;;;;;;;5060659;28;20035;-79
2023/07/24 11:18:11;;;;;;;2.92;1.23;;;;;;;;;;5071314;28;20035;-79
2023/07/24 11:20:51;;;;;;;1.92;1.23;;;;;;;;;;5071451;28;20390;-78
2023/07/24 11:23:17;;;;;;;3.67;1.38;;;;;;;;;;5069777;28;20115;-79
2023/07/24 11:25:43;;;;;;;3.55;1.50;;;;;;;;;;5077669;28;20028;-79
2023/07/24 11:28:10;;;;;;;2.35;1.63;;;;;;;;;;5069501;28;20068;-79
2023/07/24 11:30:36;;;;;;;2.53;1.58;;;;;;;;;;5056290;28;20028;-79
2023/07/24 11:33:03;;;;;;;2.85;1.67;;;;;;;;;;5069039;28;20041;-78
2023/07/24 11:35:29;;;;;;;1.77;1.20;;;;;;;;;;5068159;28;20090;-78
2023/07/24 11:37:55;;;;;;;2.58;1.60;;;;;;;;;;5070660;28;20028;-78
2023/07/24 11:40:21;;;;;;;2.30;1.23;;;;;;;;;;5071261;28;20029;-78
2023/07/24 11:42:48;;;;;;;4.25;1.40;;;;;;;;;;5071471;28;20499;-78
2023/07/24 11:45:14;;;;;;;2.17;1.30;;;;;;;;;;5078462;28;20028;-79
2023/07/24 11:47:45;;;;;;;3.72;1.45;;;;;;;;;;5073046;28;20031;-78
2023/07/24 11:50:11;;;;;;;2.30;1.30;;;;;;;;;;5068543;28;20112;-79
2023/07/24 11:52:44;;;;;;;1.35;1.00;;;;;;;;;;5070293;28;20599;-78
2023/07/24 11:55:11;;;;;;;2.97;1.45;;;;;;;;;;5069096;28;20032;-78
2023/07/24 11:57:37;;;;;;;3.17;1.45;;;;;;;;;;5069084;28;20013;-77
2023/07/24 12:00:04;;;;;;;6.28;1.45;;;;;;;;;;5071149;28;20024;-78
2023/07/24 12:02:32;;;;;;;2.05;1.35;;;;;;;;;;5070083;28;20102;-78
2023/07/24 12:04:58;;;;;;;1.80;1.27;;;;;;;;;;5084815;28;20017;-79
2023/07/24 12:07:29;;;;;;;2.00;1.25;;;;;;;;;;5067928;28;20037;-78
2023/07/24 12:09:55;;;;;;;2.05;1.30;;;;;;;;;;5068353;28;20017;-78
2023/07/24 12:12:21;;;;;;;4.10;1.65;;;;;;;;;;5069775;28;20102;-75
2023/07/24 12:14:47;;;;;;;3.80;1.40;;;;;;;;;;5067958;28;20441;-76
2023/07/24 12:17:17;;;;;;;2.08;1.30;;;;;;;;;;5069320;28;20025;-75
2023/07/24 12:19:43;;;;;;;1.58;1.20;;;;;;;;;;5051484;28;20114;-76
2023/07/24 12:22:09;;;;;;;2.30;1.45;;;;;;;;;;5069917;28;20040;-75
2023/07/24 12:24:35;;;;;;;3.20;1.40;;;;;;;;;;5055111;28;20028;-75
2023/07/24 12:27:01;;;;;;;4.00;1.42;;;;;;;;;;5069339;28;20020;-76
2023/07/24 12:29:27;;;;;;;2.80;1.55;;;;;;;;;;5063609;28;20586;-77
2023/07/24 12:31:53;;;;;;;2.40;1.77;;;;;;;;;;5066645;28;20032;-76
2023/07/24 12:34:19;;;;;;;2.35;1.45;;;;;;;;;;5069592;28;20020;-75
2023/07/24 12:36:47;;;;;;;2.72;1.60;;;;;;;;;;5068932;28;20571;-76
2023/07/24 12:39:13;;;;;;;3.15;1.92;;;;;;;;;;5074017;28;20073;-76
2023/07/24 12:41:42;;;;;;;1.23;1.10;;;;;;;;;;5067095;28;20037;-76
2023/07/24 12:44:08;;;;;;;2.50;1.52;;;;;;;;;;5068960;28;20050;-75
2023/07/24 12:46:34;;;;;;;1.77;1.40;;;;;;;;;;5060719;28;20020;-75
2023/07/24 12:48:59;;;;;;;1.45;0.95;;;;;;;;;;5059140;28;20501;-75
2023/07/24 12:51:25;;;;;;;3.03;1.48;;;;;;;;;;5073772;28;20028;-74
2023/07/24 12:53:51;;;;;;;2.72;1.50;;;;;;;;;;5070987;28;20039;-74
2023/07/24 12:56:17;;;;;;;2.58;1.50;;;;;;;;;;5073284;28;20232;-75
2023/07/24 12:58:44;;;;;;;2.22;1.50;;;;;;;;;;5056601;28;20036;-75
2023/07/24 13:01:10;;;;;;;1.83;1.33;;;;;;;;;;5050900;28;20470;-75
2023/07/24 13:03:36;;;;;;;2.03;1.40;;;;;;;;;;5066839;28;20037;-74
2023/07/24 13:06:02;;;;;;;1.30;1.15;;;;;;;;;;5066079;28;21602;-77
2023/07/24 13:08:30;;;;;;;1.83;1.33;;;;;;;;;;5066902;28;20036;-76
2023/07/24 13:10:56;;;;;;;1.73;1.27;;;;;;;;;;5067691;28;20031;-73
2023/07/24 13:13:30;;;;;;;2.17;1.50;;;;;;;;;;5070022;28;20472;-81
2023/07/24 13:15:56;;;;;;;1.58;1.27;;;;;;;;;;5068494;28;20020;-74
2023/07/24 13:18:22;;;;;;;2.47;1.40;;;;;;;;;;5065067;28;20824;-75
2023/07/24 13:20:51;;;;;;;3.53;1.80;;;;;;;;;;5057967;28;20025;-74
2023/07/24 13:23:17;;;;;;;1.92;1.42;;;;;;;;;;5064926;28;20021;-74
2023/07/24 13:25:53;;;;;;;;;;;;;;;;;;;;;
2023/07/24 13:28:20;;;;;;;1.67;1.20;;;;;;;;;;5066526;28;20517;-74
2023/07/24 13:30:46;;;;;;;1.70;1.20;;;;;;;;;;5069779;28;20020;-74
2023/07/24 13:33:13;;;;;;;2.20;1.70;;;;;;;;;;5067415;28;20024;-76
2023/07/24 13:35:38;;;;;;;2.15;1.30;;;;;;;;;;5071415;28;20032;-73
2023/07/24 13:38:04;;;;;;;2.97;1.58;;;;;;;;;;5064665;28;20043;-73
2023/07/24 13:40:30;;;;;;;2.47;1.42;;;;;;;;;;5078154;28;20023;-73
2023/07/24 13:42:56;;;;;;;1.83;1.25;;;;;;;;;;5068060;28;20020;-73
2023/07/24 13:45:22;;;;;;;1.52;1.05;;;;;;;;;;5062557;28;20469;-73
2023/07/24 13:47:48;;;;;;;2.67;1.23;;;;;;;;;;5068381;28;20311;-73
2023/07/24 13:50:14;;;;;;;1.70;1.10;;;;;;;;;;5068767;28;20021;-73
2023/07/24 13:52:40;;;;;;;2.58;1.10;;;;;;;;;;5068582;28;20035;-73
2023/07/24 13:55:07;;;;;;;17.48;1.63;;;;;;;;;;5068386;28;20063;-73
2023/07/24 13:57:33;;;;;;;2.85;1.33;;;;;;;;;;5068661;28;20135;-73
2023/07/24 13:59:59;;;;;;;1.50;1.10;;;;;;;;;;5070697;28;20102;-73
2023/07/24 14:02:25;;;;;;;1.33;1.00;;;;;;;;;;5067487;28;20043;-73
2023/07/24 14:04:51;;;;;;;2.35;1.48;;;;;;;;;;5068479;28;20051;-73
2023/07/24 14:07:17;;;;;;;1.45;1.00;;;;;;;;;;5068213;28;20036;-73
2023/07/24 14:09:43;;;;;;;1.77;0.98;;;;;;;;;;5071923;28;20024;-74
2023/07/24 14:12:09;;;;;;;1.30;1.15;;;;;;;;;;5067627;28;20450;-73
2023/07/24 14:14:34;;;;;;;1.80;1.00;;;;;;;;;;5068551;28;20020;-74
2023/07/24 14:17:00;;;;;;;2.10;1.35;;;;;;;;;;5068261;28;20391;-74
2023/07/24 14:19:26;;;;;;;1.38;0.98;;;;;;;;;;5067423;28;20087;-73
2023/07/24 14:21:52;;;;;;;1.52;1.10;;;;;;;;;;5073717;28;20040;-74
2023/07/24 14:24:18;;;;;;;2.65;1.35;;;;;;;;;;5072695;28;20023;-75
2023/07/24 14:26:44;;;;;;;1.77;1.30;;;;;;;;;;5053923;28;20107;-74
2023/07/24 14:29:11;;;;;;;1.95;1.23;;;;;;;;;;5068378;28;20131;-74
2023/07/24 14:31:37;;;;;;;1.90;1.02;;;;;;;;;;5070563;28;20493;-74
2023/07/24 14:34:03;;;;;;;1.55;1.00;;;;;;;;;;5072147;28;20033;-74
2023/07/24 14:36:33;;;;;;;0.95;0.85;;;;;;;;;;5069967;28;20517;-74
2023/07/24 14:39:00;;;;;;;1.88;1.05;;;;;;;;;;5071872;28;20474;-74